EPMOEPGD

Guest
Details From EPMO - MODLIN
To EPGD - LECH WALESA
Flight Number -
Tags generated
Created
Modified
Stats Distance 142 nm / 263 km
Max Altitude 16,200 ft / 4,938 m
Waypoints 3
Social Downloads 4
Likes 0
Share VATSIM

Download

Looking for another format? Having issues loading an existing format? Contact us
Advertisement - Login to hide

Notes

Basic altitude profile: - Ascent Rate: 2500ft/min - Ascent Speed: 250kts - Cruise Altitude: 35000ft - Cruise Speed: 420kts - Descent Rate: 1500ft/min - Descent Speed: 250kts Options: - Use NATs: yes - Use PACOTS: yes - Use low airways: yes - Use high airways: yes

Route

EPMO SOMOR EPGD

ID Type Via Altitude Latitude Longitude Leg Dist Tot Dist Heading (true) Name
O EPMO APT - 0 ft / 0 m 52.45111˚ 20.65178˚ - 0 nm - MODLIN
SOMOR FIX - 16,200 ft / 4,938 m 53.22694˚ 19.35028˚ 66 nm 66 nm 315° / 314° -
O EPGD APT - 0 ft / 0 m 54.37617˚ 18.47188˚ 75 nm 142 nm 336° / 335° LECH WALESA

Altitude Profile

Advertisement - Login to hide

EPMO

Details ICAO EPMO (WMI)
Name MODLIN
Region Poland
Timezone Europe/Warsaw (UTC+1.0)
Stats Elevation 341 ft / 104 m (AMSL)
Location 52.451110° 20.651778°
Runways 1
Magnetic Variation 5.766° E

METAR

EPMO 141730Z 25021KT 6000 -RA BKN006 02/01 Q0994

Decode

TAF

TAF EPMO 141130Z 1412/1512 19010KT 9999 BKN040 TEMPO 1414/1419 22018G35KT 4000 SHRASN SCT007 BKN014CB

Decode

Departure Runways

ID Width Length Bearing (true) Bearing (mag) Surface Threshold Offset Overrun Length
08 197 ft / 60 m 8,188 ft / 2,496 m 81.96° 76.19° Asphalt 0 ft / 0 m 0 ft / 0 m
26 197 ft / 60 m 8,188 ft / 2,496 m 261.99° 256.22° Asphalt 0 ft / 0 m 0 ft / 0 m

EPGD

Details ICAO EPGD (GDN)
Name LECH WALESA
Region Poland
Timezone Europe/Warsaw (UTC+1.0)
Stats Elevation 489 ft / 149 m (AMSL)
Location 54.376167° 18.471884°
Runways 1
Magnetic Variation 5.450° E

METAR

EPGD 141730Z 21009KT 180V240 9999 BKN013 03/01 Q0988 R11/290095

Decode

TAF

TAF TAF EPGD 141130Z 1412/1512 20013KT 9999 BKN020 TEMPO 1412/1420 22015G25KT TEMPO 1420/1507 4000 -RA RASN BKN008 BKN015

Decode

Destination Runways

ID Width Length Bearing (true) Bearing (mag) Surface Threshold Offset Overrun Length
11 148 ft / 45 m 9,158 ft / 2,791 m 112.96° 107.51° Asphalt 0 ft / 0 m 0 ft / 0 m
29 148 ft / 45 m 9,158 ft / 2,791 m 293.00° 287.55° Asphalt 0 ft / 0 m 0 ft / 0 m

Approach Navaids

Runway Type Ident Frequency Range Bearing (true) Bearing (mag) Slope Elevation
29 Localiser IGDA 110.30 MHz 18 nm / 33 km 292.96° 287.51° - 489 ft / 149 m (AMSL)
29 Glidescope IGDA 110.30 MHz 10 nm / 19 km 292.98° 287.53° 2.90° 489 ft / 149 m (AMSL)
29 DME IGDA 110.30 MHz 18 nm / 33 km - - - 492 ft / 150 m (AMSL)

Popular Alternatives